KITH/ITH METAR and TAF weather

Enter ICAO airport designator
Station Type Date Time Source
KITH METAR 2022/05/26 04:56 UTC NOAA

KITH 260456Z AUTO 15013KT CLR 17/09 A3021 RMK AO2 SLP224 T01720094 PWINO $


Station Type Date Time Source
KITH Decoded METAR 2022/05/26 04:56 UTC NOAA

Ithaca, Ithaca Tompkins Regional Airport, NY, United States (KITH) 42-29-27N 076-27-30W
May 26, 2022 - 12:56 AM EDT / 2022.05.26 0456 UTC
Wind: from the SSE (150 degrees) at 15 MPH (13 KT):0
Sky conditions: clear
Temperature: 63.0 F (17.2 C)
Dew Point: 48.9 F (9.4 C)
Relative Humidity: 60%
Pressure (altimeter): 30.21 in. Hg (1023 hPa)
ob: KITH 260456Z AUTO 15013KT CLR 17/09 A3021 RMK AO2 SLP224 T01720094 PWINO
cycle: 5

Station Type Date Time Source
KITH TAF 2022/05/26 06:22 UTC NOAA

TAF KITH 260520Z 2606/2706 16013KT P6SM BKN100
FM261400 18014G24KT P6SM SCT120
FM262300 17013KT P6SM BKN045
FM270300 17013KT P6SM BKN025

Example: see airport list